sensor_id;sensor_type;location;lat;lon;timestamp;P1;durP1;ratioP1;P2;durP2;ratioP2
42110;SDS011;27766;52.174;5.456;2023-04-01T00:01:52;19.67;;;10.52;;
42110;SDS011;27766;52.174;5.456;2023-04-01T00:04:19;18.65;;;10.10;;
42110;SDS011;27766;52.174;5.456;2023-04-01T00:06:47;15.75;;;10.18;;
42110;SDS011;27766;52.174;5.456;2023-04-01T00:09:14;19.75;;;11.00;;
42110;SDS011;27766;52.174;5.456;2023-04-01T00:11:41;21.83;;;10.57;;
42110;SDS011;27766;52.174;5.456;2023-04-01T00:14:08;19.38;;;10.95;;
42110;SDS011;27766;52.174;5.456;2023-04-01T00:16:37;20.90;;;10.43;;
42110;SDS011;27766;52.174;5.456;2023-04-01T00:19:05;15.55;;;10.90;;
42110;SDS011;27766;52.174;5.456;2023-04-01T00:21:33;18.92;;;10.50;;
42110;SDS011;27766;52.174;5.456;2023-04-01T00:24:00;33.80;;;11.13;;
42110;SDS011;27766;52.174;5.456;2023-04-01T00:26:27;24.60;;;10.75;;
42110;SDS011;27766;52.174;5.456;2023-04-01T00:28:54;26.85;;;10.85;;
42110;SDS011;27766;52.174;5.456;2023-04-01T00:31:21;20.70;;;11.35;;
42110;SDS011;27766;52.174;5.456;2023-04-01T00:33:49;26.23;;;10.55;;
42110;SDS011;27766;52.174;5.456;2023-04-01T00:36:17;20.27;;;10.07;;
42110;SDS011;27766;52.174;5.456;2023-04-01T00:38:46;27.98;;;11.45;;
42110;SDS011;27766;52.174;5.456;2023-04-01T00:41:14;24.35;;;10.45;;
42110;SDS011;27766;52.174;5.456;2023-04-01T00:43:43;29.77;;;11.13;;
42110;SDS011;27766;52.174;5.456;2023-04-01T00:46:12;26.40;;;11.35;;
42110;SDS011;27766;52.174;5.456;2023-04-01T00:48:41;22.80;;;10.80;;
42110;SDS011;27766;52.174;5.456;2023-04-01T00:51:22;24.17;;;10.65;;
42110;SDS011;27766;52.174;5.456;2023-04-01T00:53:52;22.30;;;9.25;;
42110;SDS011;27766;52.174;5.456;2023-04-01T00:56:23;19.48;;;9.90;;
42110;SDS011;27766;52.174;5.456;2023-04-01T00:58:55;25.30;;;9.48;;
42110;SDS011;27766;52.174;5.456;2023-04-01T01:01:25;23.35;;;9.25;;
42110;SDS011;27766;52.174;5.456;2023-04-01T01:03:53;23.70;;;9.07;;
42110;SDS011;27766;52.174;5.456;2023-04-01T01:06:26;30.40;;;10.38;;
42110;SDS011;27766;52.174;5.456;2023-04-01T01:09:08;22.83;;;9.90;;
42110;SDS011;27766;52.174;5.456;2023-04-01T01:11:47;19.10;;;9.23;;
42110;SDS011;27766;52.174;5.456;2023-04-01T01:14:28;20.45;;;10.43;;
42110;SDS011;27766;52.174;5.456;2023-04-01T01:17:06;29.65;;;11.27;;
42110;SDS011;27766;52.174;5.456;2023-04-01T01:19:57;27.52;;;10.75;;
42110;SDS011;27766;52.174;5.456;2023-04-01T01:29:00;26.92;;;9.23;;
42110;SDS011;27766;52.174;5.456;2023-04-01T01:37:01;19.33;;;10.70;;
42110;SDS011;27766;52.174;5.456;2023-04-01T01:39:33;23.48;;;10.18;;
42110;SDS011;27766;52.174;5.456;2023-04-01T01:42:04;19.20;;;11.32;;
42110;SDS011;27766;52.174;5.456;2023-04-01T01:44:35;19.88;;;10.30;;
42110;SDS011;27766;52.174;5.456;2023-04-01T01:47:05;14.43;;;9.63;;
42110;SDS011;27766;52.174;5.456;2023-04-01T01:49:32;17.08;;;8.27;;
42110;SDS011;27766;52.174;5.456;2023-04-01T01:52:02;16.25;;;8.63;;
42110;SDS011;27766;52.174;5.456;2023-04-01T01:54:30;16.63;;;8.75;;
42110;SDS011;27766;52.174;5.456;2023-04-01T01:57:04;19.23;;;11.05;;
42110;SDS011;27766;52.174;5.456;2023-04-01T01:59:34;20.02;;;8.32;;
42110;SDS011;27766;52.174;5.456;2023-04-01T02:02:04;10.60;;;6.75;;
42110;SDS011;27766;52.174;5.456;2023-04-01T02:04:36;7.80;;;5.35;;
42110;SDS011;27766;52.174;5.456;2023-04-01T02:07:17;9.52;;;5.78;;
42110;SDS011;27766;52.174;5.456;2023-04-01T02:09:49;9.63;;;5.15;;
42110;SDS011;27766;52.174;5.456;2023-04-01T02:12:17;8.75;;;5.90;;
42110;SDS011;27766;52.174;5.456;2023-04-01T02:14:47;13.60;;;5.82;;
42110;SDS011;27766;52.174;5.456;2023-04-01T02:19:52;7.82;;;4.78;;
42110;SDS011;27766;52.174;5.456;2023-04-01T02:22:26;9.23;;;3.72;;
42110;SDS011;27766;52.174;5.456;2023-04-01T02:25:14;6.20;;;3.90;;
42110;SDS011;27766;52.174;5.456;2023-04-01T02:27:44;7.90;;;4.03;;
42110;SDS011;27766;52.174;5.456;2023-04-01T02:30:14;5.50;;;3.75;;
42110;SDS011;27766;52.174;5.456;2023-04-01T02:32:42;5.30;;;3.50;;
42110;SDS011;27766;52.174;5.456;2023-04-01T02:35:10;8.90;;;4.28;;
42110;SDS011;27766;52.174;5.456;2023-04-01T02:37:40;6.63;;;3.33;;
42110;SDS011;27766;52.174;5.456;2023-04-01T02:40:11;7.20;;;4.40;;
42110;SDS011;27766;52.174;5.456;2023-04-01T02:42:40;6.68;;;3.72;;
42110;SDS011;27766;52.174;5.456;2023-04-01T02:45:07;12.20;;;4.28;;
42110;SDS011;27766;52.174;5.456;2023-04-01T02:47:35;9.27;;;5.00;;
42110;SDS011;27766;52.174;5.456;2023-04-01T02:50:03;5.78;;;3.78;;
42110;SDS011;27766;52.174;5.456;2023-04-01T02:52:31;7.47;;;4.30;;
42110;SDS011;27766;52.174;5.456;2023-04-01T02:54:58;6.47;;;4.50;;
42110;SDS011;27766;52.174;5.456;2023-04-01T02:57:25;9.15;;;3.85;;
42110;SDS011;27766;52.174;5.456;2023-04-01T02:59:52;7.03;;;4.40;;
42110;SDS011;27766;52.174;5.456;2023-04-01T03:02:19;4.43;;;3.97;;
42110;SDS011;27766;52.174;5.456;2023-04-01T03:04:47;5.57;;;3.90;;
42110;SDS011;27766;52.174;5.456;2023-04-01T03:07:14;4.03;;;3.20;;
42110;SDS011;27766;52.174;5.456;2023-04-01T03:09:41;5.95;;;4.30;;
42110;SDS011;27766;52.174;5.456;2023-04-01T03:12:08;8.80;;;4.45;;
42110;SDS011;27766;52.174;5.456;2023-04-01T03:14:36;6.38;;;3.78;;
42110;SDS011;27766;52.174;5.456;2023-04-01T03:17:03;5.40;;;3.20;;
42110;SDS011;27766;52.174;5.456;2023-04-01T03:19:30;9.65;;;4.28;;
42110;SDS011;27766;52.174;5.456;2023-04-01T03:21:57;4.95;;;3.03;;
42110;SDS011;27766;52.174;5.456;2023-04-01T03:24:24;4.68;;;2.90;;
42110;SDS011;27766;52.174;5.456;2023-04-01T03:26:51;5.45;;;3.72;;
42110;SDS011;27766;52.174;5.456;2023-04-01T03:29:18;5.13;;;3.53;;
42110;SDS011;27766;52.174;5.456;2023-04-01T03:31:45;6.95;;;3.92;;
42110;SDS011;27766;52.174;5.456;2023-04-01T03:34:12;5.65;;;3.65;;
42110;SDS011;27766;52.174;5.456;2023-04-01T03:36:39;7.50;;;5.22;;
42110;SDS011;27766;52.174;5.456;2023-04-01T03:39:07;10.73;;;5.65;;
42110;SDS011;27766;52.174;5.456;2023-04-01T03:41:35;19.30;;;6.28;;
42110;SDS011;27766;52.174;5.456;2023-04-01T03:44:03;9.77;;;6.68;;
42110;SDS011;27766;52.174;5.456;2023-04-01T03:46:30;10.35;;;6.15;;
42110;SDS011;27766;52.174;5.456;2023-04-01T03:48:57;8.77;;;6.63;;
42110;SDS011;27766;52.174;5.456;2023-04-01T03:51:24;10.10;;;7.43;;
42110;SDS011;27766;52.174;5.456;2023-04-01T03:53:52;11.77;;;8.25;;
42110;SDS011;27766;52.174;5.456;2023-04-01T03:56:19;10.77;;;8.55;;
42110;SDS011;27766;52.174;5.456;2023-04-01T03:58:46;13.10;;;9.43;;
42110;SDS011;27766;52.174;5.456;2023-04-01T04:01:15;12.60;;;9.50;;
42110;SDS011;27766;52.174;5.456;2023-04-01T04:06:16;16.52;;;10.55;;
42110;SDS011;27766;52.174;5.456;2023-04-01T04:08:45;20.42;;;11.70;;
42110;SDS011;27766;52.174;5.456;2023-04-01T04:11:12;23.50;;;12.75;;
42110;SDS011;27766;52.174;5.456;2023-04-01T04:13:40;19.73;;;13.55;;
42110;SDS011;27766;52.174;5.456;2023-04-01T04:16:08;22.70;;;13.30;;
42110;SDS011;27766;52.174;5.456;2023-04-01T04:18:37;22.88;;;13.27;;
42110;SDS011;27766;52.174;5.456;2023-04-01T04:21:04;21.33;;;13.15;;
42110;SDS011;27766;52.174;5.456;2023-04-01T04:23:32;21.15;;;12.85;;
42110;SDS011;27766;52.174;5.456;2023-04-01T04:26:02;19.90;;;12.10;;
42110;SDS011;27766;52.174;5.456;2023-04-01T04:28:33;19.70;;;11.55;;
42110;SDS011;27766;52.174;5.456;2023-04-01T04:31:01;21.00;;;12.82;;
42110;SDS011;27766;52.174;5.456;2023-04-01T04:33:28;21.52;;;12.43;;
42110;SDS011;27766;52.174;5.456;2023-04-01T04:35:56;22.25;;;11.25;;
42110;SDS011;27766;52.174;5.456;2023-04-01T04:38:24;20.27;;;10.90;;
42110;SDS011;27766;52.174;5.456;2023-04-01T04:40:51;17.45;;;10.00;;
42110;SDS011;27766;52.174;5.456;2023-04-01T04:43:18;20.67;;;9.68;;
42110;SDS011;27766;52.174;5.456;2023-04-01T04:45:45;15.30;;;9.25;;
42110;SDS011;27766;52.174;5.456;2023-04-01T04:48:13;15.20;;;9.75;;
42110;SDS011;27766;52.174;5.456;2023-04-01T04:50:45;19.35;;;9.25;;
42110;SDS011;27766;52.174;5.456;2023-04-01T04:53:17;21.75;;;10.23;;
42110;SDS011;27766;52.174;5.456;2023-04-01T04:55:49;18.77;;;9.40;;
42110;SDS011;27766;52.174;5.456;2023-04-01T04:58:17;16.63;;;9.35;;
42110;SDS011;27766;52.174;5.456;2023-04-01T05:00:44;18.40;;;9.65;;
42110;SDS011;27766;52.174;5.456;2023-04-01T05:03:12;18.33;;;9.45;;
42110;SDS011;27766;52.174;5.456;2023-04-01T05:05:47;17.48;;;9.18;;
42110;SDS011;27766;52.174;5.456;2023-04-01T05:08:16;18.80;;;8.88;;
42110;SDS011;27766;52.174;5.456;2023-04-01T05:10:43;13.43;;;8.35;;
42110;SDS011;27766;52.174;5.456;2023-04-01T05:13:11;14.18;;;9.20;;
42110;SDS011;27766;52.174;5.456;2023-04-01T05:15:38;12.60;;;8.23;;
42110;SDS011;27766;52.174;5.456;2023-04-01T05:18:06;16.23;;;7.65;;
42110;SDS011;27766;52.174;5.456;2023-04-01T05:20:34;12.85;;;7.28;;
42110;SDS011;27766;52.174;5.456;2023-04-01T05:23:01;15.90;;;7.05;;
42110;SDS011;27766;52.174;5.456;2023-04-01T05:25:29;11.40;;;6.70;;
42110;SDS011;27766;52.174;5.456;2023-04-01T05:27:57;10.65;;;6.43;;
42110;SDS011;27766;52.174;5.456;2023-04-01T05:30:24;8.25;;;6.43;;
42110;SDS011;27766;52.174;5.456;2023-04-01T05:32:51;8.70;;;5.88;;
42110;SDS011;27766;52.174;5.456;2023-04-01T05:35:18;8.40;;;5.78;;
42110;SDS011;27766;52.174;5.456;2023-04-01T05:37:45;8.80;;;6.60;;
42110;SDS011;27766;52.174;5.456;2023-04-01T05:40:12;9.70;;;6.68;;
42110;SDS011;27766;52.174;5.456;2023-04-01T05:42:40;8.75;;;5.53;;
42110;SDS011;27766;52.174;5.456;2023-04-01T05:45:07;13.55;;;6.07;;
42110;SDS011;27766;52.174;5.456;2023-04-01T05:47:36;8.45;;;6.03;;
42110;SDS011;27766;52.174;5.456;2023-04-01T05:50:03;8.50;;;6.18;;
42110;SDS011;27766;52.174;5.456;2023-04-01T05:52:30;9.43;;;5.85;;
42110;SDS011;27766;52.174;5.456;2023-04-01T05:54:58;8.68;;;5.40;;
42110;SDS011;27766;52.174;5.456;2023-04-01T05:57:26;8.57;;;5.70;;
42110;SDS011;27766;52.174;5.456;2023-04-01T05:59:54;8.95;;;5.55;;
42110;SDS011;27766;52.174;5.456;2023-04-01T06:02:21;10.98;;;5.78;;
42110;SDS011;27766;52.174;5.456;2023-04-01T06:04:54;9.05;;;5.60;;
42110;SDS011;27766;52.174;5.456;2023-04-01T06:07:38;8.73;;;5.35;;
42110;SDS011;27766;52.174;5.456;2023-04-01T06:10:14;11.07;;;6.05;;
42110;SDS011;27766;52.174;5.456;2023-04-01T06:15:21;10.82;;;6.25;;
42110;SDS011;27766;52.174;5.456;2023-04-01T06:23:57;13.23;;;7.05;;
42110;SDS011;27766;52.174;5.456;2023-04-01T06:32:17;11.25;;;6.30;;
42110;SDS011;27766;52.174;5.456;2023-04-01T06:34:58;9.32;;;5.40;;
42110;SDS011;27766;52.174;5.456;2023-04-01T06:37:48;9.20;;;5.57;;
42110;SDS011;27766;52.174;5.456;2023-04-01T06:43:12;7.07;;;4.85;;
42110;SDS011;27766;52.174;5.456;2023-04-01T06:49:17;7.00;;;4.25;;
42110;SDS011;27766;52.174;5.456;2023-04-01T06:57:02;2.33;;;1.40;;
42110;SDS011;27766;52.174;5.456;2023-04-01T06:59:37;2.22;;;1.35;;
42110;SDS011;27766;52.174;5.456;2023-04-01T07:05:10;3.78;;;2.35;;
42110;SDS011;27766;52.174;5.456;2023-04-01T07:07:39;3.38;;;1.90;;
42110;SDS011;27766;52.174;5.456;2023-04-01T07:10:17;4.47;;;2.30;;
42110;SDS011;27766;52.174;5.456;2023-04-01T07:12:54;2.80;;;2.42;;
42110;SDS011;27766;52.174;5.456;2023-04-01T07:15:26;3.92;;;3.10;;
42110;SDS011;27766;52.174;5.456;2023-04-01T07:20:55;6.82;;;3.63;;
42110;SDS011;27766;52.174;5.456;2023-04-01T07:23:24;4.38;;;3.00;;
42110;SDS011;27766;52.174;5.456;2023-04-01T07:25:58;3.97;;;3.35;;
42110;SDS011;27766;52.174;5.456;2023-04-01T07:28:29;4.78;;;3.67;;
42110;SDS011;27766;52.174;5.456;2023-04-01T07:34:27;5.50;;;3.78;;
42110;SDS011;27766;52.174;5.456;2023-04-01T07:39:46;9.57;;;4.17;;
42110;SDS011;27766;52.174;5.456;2023-04-01T07:45:02;8.63;;;4.47;;
42110;SDS011;27766;52.174;5.456;2023-04-01T07:50:33;7.10;;;4.85;;
42110;SDS011;27766;52.174;5.456;2023-04-01T07:56:04;9.20;;;5.78;;
42110;SDS011;27766;52.174;5.456;2023-04-01T07:58:35;8.82;;;6.22;;
42110;SDS011;27766;52.174;5.456;2023-04-01T08:01:27;12.05;;;8.05;;
42110;SDS011;27766;52.174;5.456;2023-04-01T08:15:39;11.30;;;6.82;;
42110;SDS011;27766;52.174;5.456;2023-04-01T08:23:27;10.27;;;6.30;;
42110;SDS011;27766;52.174;5.456;2023-04-01T08:26:09;7.43;;;5.63;;
42110;SDS011;27766;52.174;5.456;2023-04-01T08:28:51;7.95;;;6.22;;
42110;SDS011;27766;52.174;5.456;2023-04-01T08:34:32;8.27;;;6.78;;
42110;SDS011;27766;52.174;5.456;2023-04-01T08:39:46;13.02;;;7.45;;
42110;SDS011;27766;52.174;5.456;2023-04-01T08:48:31;12.70;;;8.10;;
42110;SDS011;27766;52.174;5.456;2023-04-01T08:53:24;11.60;;;7.82;;
42110;SDS011;27766;52.174;5.456;2023-04-01T09:01:51;13.35;;;8.07;;
42110;SDS011;27766;52.174;5.456;2023-04-01T09:33:36;14.07;;;8.60;;
42110;SDS011;27766;52.174;5.456;2023-04-01T09:41:30;14.50;;;9.55;;
42110;SDS011;27766;52.174;5.456;2023-04-01T10:01:01;9.93;;;7.93;;
42110;SDS011;27766;52.174;5.456;2023-04-01T10:04:02;11.43;;;7.68;;
42110;SDS011;27766;52.174;5.456;2023-04-01T10:12:09;11.05;;;5.47;;
42110;SDS011;27766;52.174;5.456;2023-04-01T10:20:29;4.93;;;4.40;;
42110;SDS011;27766;52.174;5.456;2023-04-01T10:49:43;6.13;;;5.20;;
42110;SDS011;27766;52.174;5.456;2023-04-01T11:15:48;4.78;;;3.25;;
42110;SDS011;27766;52.174;5.456;2023-04-01T11:27:35;3.95;;;2.20;;
42110;SDS011;27766;52.174;5.456;2023-04-01T11:38:00;2.03;;;1.42;;
42110;SDS011;27766;52.174;5.456;2023-04-01T11:46:52;1.30;;;1.20;;
42110;SDS011;27766;52.174;5.456;2023-04-01T11:50:33;2.47;;;1.70;;
42110;SDS011;27766;52.174;5.456;2023-04-01T11:58:56;1.77;;;1.67;;
42110;SDS011;27766;52.174;5.456;2023-04-01T12:07:18;3.38;;;2.58;;
42110;SDS011;27766;52.174;5.456;2023-04-01T12:10:25;5.22;;;4.22;;
42110;SDS011;27766;52.174;5.456;2023-04-01T12:16:08;8.02;;;5.25;;
42110;SDS011;27766;52.174;5.456;2023-04-01T12:18:50;7.20;;;5.43;;
42110;SDS011;27766;52.174;5.456;2023-04-01T12:27:23;7.53;;;6.75;;
42110;SDS011;27766;52.174;5.456;2023-04-01T12:35:20;12.85;;;8.68;;
42110;SDS011;27766;52.174;5.456;2023-04-01T12:40:40;11.73;;;8.18;;
42110;SDS011;27766;52.174;5.456;2023-04-01T12:48:56;12.90;;;9.18;;
42110;SDS011;27766;52.174;5.456;2023-04-01T12:57:33;10.48;;;8.02;;
42110;SDS011;27766;52.174;5.456;2023-04-01T13:00:10;12.15;;;8.40;;
42110;SDS011;27766;52.174;5.456;2023-04-01T13:08:41;8.10;;;6.57;;
42110;SDS011;27766;52.174;5.456;2023-04-01T13:20:11;8.77;;;6.10;;
42110;SDS011;27766;52.174;5.456;2023-04-01T13:30:39;7.70;;;4.55;;
42110;SDS011;27766;52.174;5.456;2023-04-01T13:33:17;8.50;;;4.65;;
42110;SDS011;27766;52.174;5.456;2023-04-01T13:35:59;5.75;;;4.70;;
42110;SDS011;27766;52.174;5.456;2023-04-01T13:49:52;7.05;;;5.03;;
42110;SDS011;27766;52.174;5.456;2023-04-01T13:57:55;6.68;;;5.55;;
42110;SDS011;27766;52.174;5.456;2023-04-01T14:00:32;7.82;;;5.45;;
42110;SDS011;27766;52.174;5.456;2023-04-01T14:06:40;7.97;;;5.32;;
42110;SDS011;27766;52.174;5.456;2023-04-01T14:12:13;8.02;;;5.53;;
42110;SDS011;27766;52.174;5.456;2023-04-01T14:20:28;5.13;;;4.50;;
42110;SDS011;27766;52.174;5.456;2023-04-01T14:40:19;5.95;;;4.40;;
42110;SDS011;27766;52.174;5.456;2023-04-01T14:43:01;5.20;;;4.40;;
42110;SDS011;27766;52.174;5.456;2023-04-01T14:45:44;4.78;;;4.25;;
42110;SDS011;27766;52.174;5.456;2023-04-01T14:48:31;5.07;;;4.25;;
42110;SDS011;27766;52.174;5.456;2023-04-01T14:51:28;9.10;;;5.40;;
42110;SDS011;27766;52.174;5.456;2023-04-01T14:56:38;6.00;;;5.10;;
42110;SDS011;27766;52.174;5.456;2023-04-01T14:59:09;5.72;;;4.35;;
42110;SDS011;27766;52.174;5.456;2023-04-01T15:02:03;8.02;;;5.32;;
42110;SDS011;27766;52.174;5.456;2023-04-01T15:04:54;6.65;;;5.13;;
42110;SDS011;27766;52.174;5.456;2023-04-01T15:07:45;8.90;;;4.60;;
42110;SDS011;27766;52.174;5.456;2023-04-01T15:13:15;5.45;;;4.05;;
42110;SDS011;27766;52.174;5.456;2023-04-01T15:23:53;4.28;;;3.40;;
42110;SDS011;27766;52.174;5.456;2023-04-01T15:26:33;6.35;;;4.25;;
42110;SDS011;27766;52.174;5.456;2023-04-01T15:34:43;4.50;;;3.42;;
42110;SDS011;27766;52.174;5.456;2023-04-01T15:37:28;3.88;;;3.00;;
42110;SDS011;27766;52.174;5.456;2023-04-01T15:40:22;3.17;;;2.85;;
42110;SDS011;27766;52.174;5.456;2023-04-01T15:43:02;3.50;;;3.15;;
42110;SDS011;27766;52.174;5.456;2023-04-01T15:50:54;3.13;;;2.75;;
42110;SDS011;27766;52.174;5.456;2023-04-01T15:54:20;4.35;;;3.00;;
42110;SDS011;27766;52.174;5.456;2023-04-01T15:57:00;3.00;;;2.67;;
42110;SDS011;27766;52.174;5.456;2023-04-01T15:59:38;3.60;;;3.10;;
42110;SDS011;27766;52.174;5.456;2023-04-01T16:07:57;6.05;;;3.53;;
42110;SDS011;27766;52.174;5.456;2023-04-01T16:10:32;4.28;;;3.88;;
42110;SDS011;27766;52.174;5.456;2023-04-01T16:19:32;4.80;;;3.50;;
42110;SDS011;27766;52.174;5.456;2023-04-01T16:22:08;4.90;;;3.25;;
42110;SDS011;27766;52.174;5.456;2023-04-01T16:27:14;4.05;;;3.65;;
42110;SDS011;27766;52.174;5.456;2023-04-01T16:32:38;6.20;;;4.15;;
42110;SDS011;27766;52.174;5.456;2023-04-01T16:38:09;4.40;;;3.75;;
42110;SDS011;27766;52.174;5.456;2023-04-01T16:40:43;4.35;;;3.63;;
42110;SDS011;27766;52.174;5.456;2023-04-01T16:43:20;4.68;;;4.22;;
42110;SDS011;27766;52.174;5.456;2023-04-01T16:46:18;7.28;;;5.72;;
42110;SDS011;27766;52.174;5.456;2023-04-01T16:59:37;4.47;;;3.60;;
42110;SDS011;27766;52.174;5.456;2023-04-01T17:04:47;5.35;;;3.80;;
42110;SDS011;27766;52.174;5.456;2023-04-01T17:10:13;3.40;;;3.10;;
42110;SDS011;27766;52.174;5.456;2023-04-01T17:28:56;2.83;;;2.63;;
42110;SDS011;27766;52.174;5.456;2023-04-01T17:31:45;3.60;;;3.22;;
42110;SDS011;27766;52.174;5.456;2023-04-01T17:42:21;3.53;;;3.17;;
42110;SDS011;27766;52.174;5.456;2023-04-01T17:48:03;3.45;;;3.15;;
42110;SDS011;27766;52.174;5.456;2023-04-01T17:51:10;3.97;;;3.40;;
42110;SDS011;27766;52.174;5.456;2023-04-01T17:53:46;4.28;;;3.47;;
42110;SDS011;27766;52.174;5.456;2023-04-01T18:05:20;5.15;;;3.83;;
42110;SDS011;27766;52.174;5.456;2023-04-01T18:13:51;5.30;;;4.60;;
42110;SDS011;27766;52.174;5.456;2023-04-01T18:16:43;5.03;;;3.90;;
42110;SDS011;27766;52.174;5.456;2023-04-01T18:22:19;5.05;;;3.83;;
42110;SDS011;27766;52.174;5.456;2023-04-01T18:25:25;4.47;;;3.80;;
42110;SDS011;27766;52.174;5.456;2023-04-01T18:27:44;5.78;;;4.53;;
42110;SDS011;27766;52.174;5.456;2023-04-01T18:35:50;5.35;;;4.70;;
42110;SDS011;27766;52.174;5.456;2023-04-01T18:38:30;5.95;;;4.95;;
42110;SDS011;27766;52.174;5.456;2023-04-01T18:41:14;5.53;;;4.43;;
42110;SDS011;27766;52.174;5.456;2023-04-01T18:46:49;6.40;;;4.22;;
42110;SDS011;27766;52.174;5.456;2023-04-01T18:52:44;4.40;;;3.92;;
42110;SDS011;27766;52.174;5.456;2023-04-01T18:57:50;4.85;;;4.32;;
42110;SDS011;27766;52.174;5.456;2023-04-01T19:00:27;4.55;;;3.47;;
42110;SDS011;27766;52.174;5.456;2023-04-01T19:03:07;4.90;;;4.00;;
42110;SDS011;27766;52.174;5.456;2023-04-01T19:05:44;4.65;;;3.63;;
42110;SDS011;27766;52.174;5.456;2023-04-01T19:08:33;5.03;;;4.00;;
42110;SDS011;27766;52.174;5.456;2023-04-01T19:27:50;4.28;;;3.88;;
42110;SDS011;27766;52.174;5.456;2023-04-01T19:30:40;5.32;;;4.35;;
42110;SDS011;27766;52.174;5.456;2023-04-01T19:33:33;4.60;;;4.20;;
42110;SDS011;27766;52.174;5.456;2023-04-01T19:36:35;4.75;;;4.25;;
42110;SDS011;27766;52.174;5.456;2023-04-01T19:50:34;9.70;;;6.45;;
42110;SDS011;27766;52.174;5.456;2023-04-01T20:01:49;7.45;;;6.30;;
42110;SDS011;27766;52.174;5.456;2023-04-01T20:07:13;6.55;;;5.85;;
42110;SDS011;27766;52.174;5.456;2023-04-01T20:09:50;8.07;;;6.50;;
42110;SDS011;27766;52.174;5.456;2023-04-01T20:12:43;12.10;;;7.15;;
42110;SDS011;27766;52.174;5.456;2023-04-01T20:17:55;16.55;;;7.95;;
42110;SDS011;27766;52.174;5.456;2023-04-01T20:20:26;10.55;;;7.60;;
42110;SDS011;27766;52.174;5.456;2023-04-01T20:25:30;9.68;;;7.40;;
42110;SDS011;27766;52.174;5.456;2023-04-01T20:28:21;8.40;;;6.68;;
42110;SDS011;27766;52.174;5.456;2023-04-01T20:31:12;10.50;;;7.45;;
42110;SDS011;27766;52.174;5.456;2023-04-01T20:42:29;8.43;;;6.55;;
42110;SDS011;27766;52.174;5.456;2023-04-01T20:52:45;8.10;;;6.70;;
42110;SDS011;27766;52.174;5.456;2023-04-01T20:58:19;9.50;;;6.38;;
42110;SDS011;27766;52.174;5.456;2023-04-01T21:12:34;9.63;;;6.78;;
42110;SDS011;27766;52.174;5.456;2023-04-01T21:15:11;10.48;;;6.47;;
42110;SDS011;27766;52.174;5.456;2023-04-01T21:21:10;7.82;;;6.18;;
42110;SDS011;27766;52.174;5.456;2023-04-01T21:29:33;8.15;;;6.57;;
42110;SDS011;27766;52.174;5.456;2023-04-01T21:44:05;10.23;;;7.88;;
42110;SDS011;27766;52.174;5.456;2023-04-01T21:47:02;10.18;;;8.00;;
42110;SDS011;27766;52.174;5.456;2023-04-01T22:00:31;9.32;;;7.68;;
42110;SDS011;27766;52.174;5.456;2023-04-01T22:19:59;10.82;;;8.20;;
42110;SDS011;27766;52.174;5.456;2023-04-01T22:25:23;10.35;;;7.63;;
42110;SDS011;27766;52.174;5.456;2023-04-01T22:28:07;11.05;;;7.65;;
42110;SDS011;27766;52.174;5.456;2023-04-01T22:30:41;11.35;;;8.00;;
42110;SDS011;27766;52.174;5.456;2023-04-01T22:50:46;14.60;;;9.20;;
42110;SDS011;27766;52.174;5.456;2023-04-01T22:53:37;13.47;;;8.67;;
42110;SDS011;27766;52.174;5.456;2023-04-01T22:56:39;15.32;;;9.38;;
42110;SDS011;27766;52.174;5.456;2023-04-01T22:59:37;12.88;;;9.73;;
42110;SDS011;27766;52.174;5.456;2023-04-01T23:02:18;15.15;;;9.23;;
42110;SDS011;27766;52.174;5.456;2023-04-01T23:04:59;13.88;;;10.57;;
42110;SDS011;27766;52.174;5.456;2023-04-01T23:10:15;15.73;;;9.52;;
42110;SDS011;27766;52.174;5.456;2023-04-01T23:12:51;15.55;;;9.75;;
42110;SDS011;27766;52.174;5.456;2023-04-01T23:15:24;12.10;;;9.23;;
42110;SDS011;27766;52.174;5.456;2023-04-01T23:21:09;21.48;;;9.82;;
42110;SDS011;27766;52.174;5.456;2023-04-01T23:23:45;12.55;;;9.85;;
42110;SDS011;27766;52.174;5.456;2023-04-01T23:26:31;16.00;;;11.18;;
42110;SDS011;27766;52.174;5.456;2023-04-01T23:29:19;13.27;;;10.02;;
42110;SDS011;27766;52.174;5.456;2023-04-01T23:31:48;15.48;;;10.07;;
42110;SDS011;27766;52.174;5.456;2023-04-01T23:34:25;18.00;;;10.18;;
42110;SDS011;27766;52.174;5.456;2023-04-01T23:36:56;17.58;;;9.93;;
42110;SDS011;27766;52.174;5.456;2023-04-01T23:39:31;13.65;;;9.95;;
42110;SDS011;27766;52.174;5.456;2023-04-01T23:44:41;14.05;;;10.63;;
42110;SDS011;27766;52.174;5.456;2023-04-01T23:47:32;14.57;;;10.65;;
42110;SDS011;27766;52.174;5.456;2023-04-01T23:50:21;18.63;;;11.02;;
42110;SDS011;27766;52.174;5.456;2023-04-01T23:52:54;13.98;;;9.70;;
42110;SDS011;27766;52.174;5.456;2023-04-01T23:55:37;16.50;;;10.00;;
